Time;durP1;ratioP1;P1;durP2;ratioP2;P2;SDS_P1;SDS_P2;PMS_P1;PMS_P2;Temp;Humidity;BMP_temperature;BMP_pressure;BME280_temperature;BME280_humidity;BME280_pressure;Samples;Min_cycle;Max_cycle;Signal;HPM_P1;HPM_P2
2024/02/12 00:01:38;;;;;;;3.10;0.90;;;6.30;99.90;;;;;;5053878;28;20183;-62
2024/02/12 00:04:07;;;;;;;0.65;0.65;;;6.30;99.90;;;;;;5053939;28;20176;-63
2024/02/12 00:06:33;;;;;;;1.50;0.80;;;6.40;99.90;;;;;;5053190;28;20172;-63
2024/02/12 00:08:58;;;;;;;0.60;0.60;;;6.30;99.90;;;;;;5036011;28;20269;-63
2024/02/12 00:11:24;;;;;;;1.10;0.80;;;6.40;99.90;;;;;;5053825;28;20640;-63
2024/02/12 00:13:50;;;;;;;1.47;1.37;;;6.50;99.90;;;;;;5053760;28;20178;-63
2024/02/12 00:16:15;;;;;;;1.47;1.37;;;6.40;99.90;;;;;;5053608;28;20175;-63
2024/02/12 00:18:42;;;;;;;2.63;0.90;;;6.50;99.90;;;;;;5053392;28;20450;-63
2024/02/12 00:21:07;;;;;;;0.75;0.75;;;6.60;99.90;;;;;;5053481;28;20200;-63
2024/02/12 00:23:34;;;;;;;1.30;0.80;;;6.50;99.90;;;;;;5053530;28;20170;-63
2024/02/12 00:26:00;;;;;;;0.85;0.85;;;6.50;99.90;;;;;;5053474;28;20177;-62
2024/02/12 00:28:28;;;;;;;1.30;1.00;;;6.70;99.90;;;;;;5053183;28;20668;-63
2024/02/12 00:30:56;;;;;;;0.73;0.73;;;6.70;99.90;;;;;;5053319;28;20279;-63
2024/02/12 00:33:22;;;;;;;6.38;1.33;;;6.80;99.90;;;;;;5053504;28;20277;-63
2024/02/12 00:35:48;;;;;;;4.43;1.13;;;6.90;99.90;;;;;;5053340;28;20634;-63
2024/02/12 00:38:13;;;;;;;2.77;2.57;;;6.80;99.90;;;;;;5052716;28;20229;-63
2024/02/12 00:40:40;;;;;;;1.13;0.87;;;6.70;99.90;;;;;;5052950;28;20281;-63
2024/02/12 00:43:07;;;;;;;2.88;1.20;;;6.80;99.90;;;;;;5053190;28;20223;-63
2024/02/12 00:45:33;;;;;;;0.75;0.75;;;6.80;99.90;;;;;;5053150;28;20230;-63
2024/02/12 00:47:58;;;;;;;1.10;1.00;;;6.90;99.90;;;;;;5053441;28;20168;-63
2024/02/12 00:50:25;;;;;;;1.33;0.80;;;6.90;99.90;;;;;;5052982;28;20194;-63
2024/02/12 00:52:52;;;;;;;1.38;1.23;;;6.80;99.90;;;;;;5052938;28;20166;-63
2024/02/12 00:55:20;;;;;;;1.45;0.90;;;6.80;99.90;;;;;;5052914;28;20590;-63
2024/02/12 00:57:46;;;;;;;1.00;0.80;;;6.70;99.90;;;;;;5052583;28;20634;-63
2024/02/12 01:00:15;;;;;;;4.03;1.27;;;6.60;99.90;;;;;;5052558;28;20299;-63
2024/02/12 01:02:45;;;;;;;0.88;0.88;;;6.70;99.90;;;;;;5052742;28;20178;-63
2024/02/12 01:05:13;;;;;;;1.52;1.10;;;6.80;99.90;;;;;;5052612;28;20169;-63
2024/02/12 01:07:40;;;;;;;1.35;1.05;;;6.80;99.90;;;;;;5052436;28;20602;-63
2024/02/12 01:10:06;;;;;;;2.88;1.08;;;6.70;99.90;;;;;;5052893;28;20350;-63
2024/02/12 01:12:33;;;;;;;1.00;1.00;;;6.80;99.90;;;;;;5052605;28;20267;-63
2024/02/12 01:15:01;;;;;;;1.58;1.17;;;6.70;99.90;;;;;;5052836;28;20188;-63
2024/02/12 01:17:29;;;;;;;2.42;1.15;;;6.70;99.90;;;;;;5052023;28;20591;-63
2024/02/12 01:19:55;;;;;;;4.10;1.20;;;6.70;99.90;;;;;;5051644;28;20218;-63
2024/02/12 01:22:20;;;;;;;4.88;1.20;;;6.70;99.90;;;;;;5052399;28;20174;-63
2024/02/12 01:24:46;;;;;;;1.53;1.07;;;6.80;99.90;;;;;;5052314;28;20727;-62
2024/02/12 01:27:13;;;;;;;2.60;1.30;;;6.80;99.90;;;;;;5052023;28;20249;-63
2024/02/12 01:29:43;;;;;;;1.10;1.00;;;6.70;99.90;;;;;;5052169;28;20695;-63
2024/02/12 01:32:09;;;;;;;0.90;0.90;;;6.80;99.90;;;;;;5052206;28;20182;-63
2024/02/12 01:34:37;;;;;;;1.38;1.27;;;6.90;99.90;;;;;;5051972;28;20201;-63
2024/02/12 01:37:03;;;;;;;1.52;1.42;;;6.90;99.90;;;;;;5051825;28;20169;-63
2024/02/12 01:39:28;;;;;;;3.13;1.20;;;7.00;99.90;;;;;;5051829;28;20218;-62
2024/02/12 01:41:54;;;;;;;1.30;1.20;;;7.10;99.90;;;;;;5051989;28;20173;-63
2024/02/12 01:44:20;;;;;;;1.80;1.70;;;7.00;99.90;;;;;;5052015;28;20181;-62
2024/02/12 01:46:48;;;;;;;1.48;1.38;;;7.00;99.90;;;;;;5051684;28;20183;-63
2024/02/12 01:49:19;;;;;;;2.42;1.58;;;6.90;99.90;;;;;;5051680;28;20230;-63
2024/02/12 01:51:48;;;;;;;1.13;0.90;;;6.90;99.90;;;;;;5052076;28;20184;-63
2024/02/12 01:54:15;;;;;;;1.67;0.90;;;6.90;99.90;;;;;;5051776;28;20174;-63
2024/02/12 01:56:42;;;;;;;1.42;1.02;;;6.90;99.90;;;;;;5051522;28;20184;-63
2024/02/12 01:59:17;;;;;;;1.58;1.35;;;6.70;99.90;;;;;;5051586;28;20195;-63
2024/02/12 02:01:45;;;;;;;1.98;1.10;;;6.60;99.90;;;;;;5051689;28;20176;-63
2024/02/12 02:04:12;;;;;;;0.60;0.60;;;6.60;99.90;;;;;;5051970;28;20264;-63
2024/02/12 02:06:38;;;;;;;1.13;1.00;;;6.60;99.90;;;;;;5033412;28;20179;-63
2024/02/12 02:09:03;;;;;;;4.55;0.95;;;6.70;99.90;;;;;;5052322;28;20264;-63
2024/02/12 02:11:29;;;;;;;0.97;0.80;;;6.70;99.90;;;;;;5052095;28;20608;-63
2024/02/12 02:13:55;;;;;;;1.67;1.03;;;6.80;99.90;;;;;;5051455;28;20176;-63
2024/02/12 02:16:21;;;;;;;1.63;0.90;;;6.70;99.90;;;;;;5051274;28;20176;-63
2024/02/12 02:18:50;;;;;;;1.60;1.30;;;6.80;99.90;;;;;;5051631;28;20600;-63
2024/02/12 02:21:21;;;;;;;1.88;1.35;;;6.50;99.90;;;;;;5051627;28;20232;-63
2024/02/12 02:23:47;;;;;;;2.03;1.42;;;6.50;99.90;;;;;;5051534;28;20170;-63
2024/02/12 02:26:13;;;;;;;1.67;1.40;;;6.50;99.90;;;;;;5051288;28;20239;-63
2024/02/12 02:28:39;;;;;;;1.30;1.20;;;6.70;99.90;;;;;;5051127;28;20174;-63
2024/02/12 02:31:05;;;;;;;1.30;1.10;;;6.70;99.90;;;;;;5051133;28;20777;-63
2024/02/12 02:33:31;;;;;;;2.20;0.93;;;6.70;99.90;;;;;;5051319;28;20708;-63
2024/02/12 02:35:57;;;;;;;3.00;1.00;;;6.70;99.90;;;;;;5051317;28;20173;-62
2024/02/12 02:38:23;;;;;;;0.90;0.90;;;6.70;99.90;;;;;;5050933;28;20201;-63
2024/02/12 02:40:48;;;;;;;1.40;1.00;;;6.70;99.90;;;;;;5051098;28;20214;-63
2024/02/12 02:43:15;;;;;;;3.13;1.27;;;6.50;99.90;;;;;;5051639;28;20191;-62
2024/02/12 02:45:41;;;;;;;1.00;0.80;;;6.50;99.90;;;;;;5051160;28;20181;-63
2024/02/12 02:48:07;;;;;;;2.73;1.07;;;6.60;99.90;;;;;;5050889;28;20185;-63
2024/02/12 02:50:34;;;;;;;1.10;1.07;;;6.70;99.90;;;;;;5051018;28;20349;-63
2024/02/12 02:53:01;;;;;;;1.27;1.15;;;6.70;99.90;;;;;;5051205;28;20165;-63
2024/02/12 02:55:28;;;;;;;0.90;0.82;;;6.60;99.90;;;;;;5051178;28;20177;-62
2024/02/12 02:58:01;;;;;;;0.60;0.60;;;6.70;99.90;;;;;;5051205;28;20254;-63
2024/02/12 03:00:31;;;;;;;2.45;1.30;;;6.70;99.90;;;;;;5050949;28;20196;-63
2024/02/12 03:02:57;;;;;;;1.08;1.00;;;6.60;99.90;;;;;;5051094;28;20383;-63
2024/02/12 03:05:24;;;;;;;3.63;1.25;;;6.70;99.90;;;;;;5050986;28;20177;-63
2024/02/12 03:07:50;;;;;;;0.80;0.80;;;6.70;99.90;;;;;;5050757;28;20243;-63
2024/02/12 03:10:16;;;;;;;1.07;0.90;;;6.70;99.90;;;;;;5050765;28;20197;-63
2024/02/12 03:12:43;;;;;;;3.20;0.87;;;6.70;99.90;;;;;;5050953;28;20551;-63
2024/02/12 03:15:11;;;;;;;1.08;1.00;;;6.70;99.90;;;;;;5050894;28;20597;-62
2024/02/12 03:17:39;;;;;;;1.65;1.10;;;6.80;99.90;;;;;;5050567;28;20592;-63
2024/02/12 03:20:09;;;;;;;2.33;1.30;;;6.90;99.90;;;;;;5050710;28;20234;-62
2024/02/12 03:22:34;;;;;;;1.83;1.73;;;6.90;99.90;;;;;;5051306;28;20168;-63
2024/02/12 03:25:00;;;;;;;2.97;1.47;;;6.90;99.90;;;;;;5050769;28;20232;-63
2024/02/12 03:27:26;;;;;;;1.63;1.53;;;6.90;99.90;;;;;;5050546;28;20657;-63
2024/02/12 03:29:51;;;;;;;6.70;1.23;;;6.80;99.90;;;;;;5051430;28;20197;-63
2024/02/12 03:32:17;;;;;;;1.13;1.10;;;6.80;99.90;;;;;;5051122;28;20172;-63
2024/02/12 03:34:43;;;;;;;3.40;1.37;;;6.50;99.90;;;;;;5050874;28;20675;-63
2024/02/12 03:37:08;;;;;;;2.30;1.33;;;6.50;99.90;;;;;;5050539;28;20176;-63
2024/02/12 03:39:34;;;;;;;2.03;1.77;;;6.50;99.90;;;;;;5050384;28;20207;-63
2024/02/12 03:41:59;;;;;;;1.50;1.40;;;6.50;99.90;;;;;;5052217;28;20176;-63
2024/02/12 03:44:26;;;;;;;1.47;1.30;;;6.60;99.90;;;;;;5054311;28;20169;-63
2024/02/12 03:46:52;;;;;;;5.45;1.60;;;6.60;99.90;;;;;;5052650;28;20242;-63
2024/02/12 04:00:17;;;;;;;1.42;1.33;;;6.70;99.90;;;;;;5053847;28;20291;-63
2024/02/12 04:02:44;;;;;;;1.30;0.80;;;6.80;99.90;;;;;;5035984;28;20697;-62
2024/02/12 04:05:10;;;;;;;1.50;0.88;;;6.50;99.90;;;;;;5054040;28;20214;-63
2024/02/12 04:07:38;;;;;;;1.80;0.90;;;6.40;99.90;;;;;;5053548;28;20201;-63
2024/02/12 04:10:06;;;;;;;1.45;1.35;;;6.40;99.90;;;;;;5053604;28;20962;-63
2024/02/12 04:12:33;;;;;;;1.85;1.50;;;6.50;99.90;;;;;;5053483;28;20611;-63
2024/02/12 04:15:00;;;;;;;1.83;1.30;;;6.60;99.90;;;;;;5053642;28;20185;-63
2024/02/12 04:17:28;;;;;;;3.25;1.25;;;6.50;99.90;;;;;;5053285;28;20263;-63
2024/02/12 04:19:54;;;;;;;3.58;1.35;;;6.60;99.90;;;;;;5053437;28;20308;-62
2024/02/12 04:22:20;;;;;;;3.05;1.38;;;6.30;99.90;;;;;;5054021;28;20192;-62
2024/02/12 04:24:46;;;;;;;1.58;1.38;;;6.30;99.90;;;;;;5035572;28;20173;-63
2024/02/12 04:27:13;;;;;;;1.73;1.20;;;6.40;99.90;;;;;;5053225;28;20172;-63
2024/02/12 04:29:40;;;;;;;3.25;2.10;;;6.40;99.90;;;;;;5053362;28;20431;-62
2024/02/12 04:32:11;;;;;;;2.17;1.55;;;6.40;99.90;;;;;;5053256;28;20567;-63
2024/02/12 04:34:38;;;;;;;1.85;1.05;;;6.40;99.90;;;;;;5053049;28;20673;-63
2024/02/12 04:37:06;;;;;;;2.85;1.80;;;6.40;99.90;;;;;;5052794;28;20181;-62
2024/02/12 04:39:32;;;;;;;1.73;1.17;;;6.20;99.90;;;;;;5053294;28;20733;-63
2024/02/12 04:41:59;;;;;;;2.17;1.40;;;6.20;99.90;;;;;;5053110;28;20210;-63
2024/02/12 04:44:28;;;;;;;2.35;2.15;;;6.40;99.90;;;;;;5053295;28;20188;-63
2024/02/12 04:46:55;;;;;;;1.90;1.80;;;6.50;99.90;;;;;;5052751;28;20174;-63
2024/02/12 04:49:21;;;;;;;2.47;1.77;;;6.60;99.90;;;;;;5053032;28;20173;-63
2024/02/12 04:51:48;;;;;;;3.70;1.90;;;6.70;99.90;;;;;;5053674;28;20174;-62
2024/02/12 04:54:14;;;;;;;2.42;1.90;;;6.70;99.90;;;;;;5052321;28;20537;-63
2024/02/12 04:56:43;;;;;;;2.55;1.27;;;6.70;99.90;;;;;;5034826;28;20242;-63
2024/02/12 04:59:11;;;;;;;1.50;1.40;;;6.80;99.90;;;;;;5052888;28;20229;-63
2024/02/12 05:01:40;;;;;;;3.75;1.60;;;6.80;99.90;;;;;;5052803;28;20200;-63
2024/02/12 05:04:06;;;;;;;4.88;1.70;;;6.80;99.90;;;;;;5052775;28;20263;-63
2024/02/12 05:06:33;;;;;;;5.90;1.90;;;6.80;99.90;;;;;;5052318;28;20706;-63
2024/02/12 05:09:05;;;;;;;2.60;1.92;;;6.70;99.90;;;;;;5052694;28;20446;-63
2024/02/12 05:11:32;;;;;;;2.13;1.92;;;6.70;99.90;;;;;;5052677;28;20593;-63
2024/02/12 05:13:57;;;;;;;1.45;1.30;;;6.80;99.90;;;;;;5034552;28;20182;-63
2024/02/12 05:16:30;;;;;;;1.50;1.40;;;6.80;99.90;;;;;;5052265;28;20184;-63
2024/02/12 05:24:27;;;;;;;0.95;0.90;;;6.60;99.90;;;;;;5052397;28;20177;-62
2024/02/12 05:26:54;;;;;;;1.10;1.00;;;6.50;99.90;;;;;;5034069;28;20201;-63
2024/02/12 05:29:20;;;;;;;1.73;1.30;;;6.40;99.90;;;;;;5037439;28;20709;-62
2024/02/12 05:31:47;;;;;;;1.70;1.20;;;6.50;99.90;;;;;;5032156;28;20197;-64
2024/02/12 05:34:13;;;;;;;1.10;1.00;;;6.60;99.90;;;;;;5026475;28;20656;-63
2024/02/12 05:36:39;;;;;;;1.40;0.77;;;6.60;99.90;;;;;;5039965;28;20267;-62
2024/02/12 05:39:05;;;;;;;0.70;0.70;;;6.60;99.90;;;;;;5023799;28;20258;-63
2024/02/12 05:41:31;;;;;;;7.67;1.40;;;6.50;99.90;;;;;;5032100;28;20182;-61
2024/02/12 05:43:56;;;;;;;1.70;1.03;;;6.60;99.90;;;;;;5031934;28;20708;-63
2024/02/12 05:46:22;;;;;;;2.30;0.90;;;6.70;99.90;;;;;;5046928;28;20170;-63
2024/02/12 05:48:47;;;;;;;0.70;0.70;;;6.70;99.90;;;;;;5051901;28;20175;-62
2024/02/12 05:51:13;;;;;;;1.53;0.70;;;6.70;99.90;;;;;;5051787;28;20205;-61
2024/02/12 05:53:39;;;;;;;0.70;0.70;;;6.60;99.90;;;;;;5052018;28;20227;-64
2024/02/12 05:56:05;;;;;;;2.10;0.73;;;6.60;99.90;;;;;;5051680;28;20265;-63
2024/02/12 05:58:30;;;;;;;0.67;0.67;;;6.50;99.90;;;;;;5051396;28;20501;-63
2024/02/12 06:00:56;;;;;;;0.87;0.87;;;6.60;99.90;;;;;;5051652;28;20196;-63
2024/02/12 06:03:22;;;;;;;0.85;0.82;;;6.70;99.90;;;;;;5051903;28;20198;-62
2024/02/12 06:05:49;;;;;;;1.87;1.00;;;6.80;99.90;;;;;;5051512;28;20265;-63
2024/02/12 06:08:15;;;;;;;1.65;1.42;;;6.70;99.90;;;;;;5033546;28;20432;-66
2024/02/12 06:10:41;;;;;;;1.23;1.02;;;6.50;99.90;;;;;;5051516;28;20284;-63
2024/02/12 06:13:07;;;;;;;1.50;1.08;;;6.40;99.90;;;;;;5051549;28;20170;-66
2024/02/12 06:15:33;;;;;;;1.53;1.00;;;6.30;99.90;;;;;;5052693;28;20188;-63
2024/02/12 06:17:58;;;;;;;1.17;0.93;;;6.40;99.90;;;;;;5051246;28;20645;-69
2024/02/12 06:20:24;;;;;;;1.90;1.00;;;6.40;99.90;;;;;;5051462;28;20206;-63
2024/02/12 06:22:50;;;;;;;1.90;1.80;;;6.40;99.90;;;;;;5051272;28;20516;-63
2024/02/12 06:25:18;;;;;;;2.03;1.23;;;6.60;99.90;;;;;;5051419;28;20211;-63
2024/02/12 06:27:45;;;;;;;2.08;1.20;;;6.60;99.90;;;;;;5050886;28;20162;-63
2024/02/12 06:30:11;;;;;;;1.25;1.15;;;6.60;99.90;;;;;;5051006;28;20201;-63
2024/02/12 06:32:37;;;;;;;1.92;1.60;;;6.50;99.90;;;;;;5051197;28;20181;-63
2024/02/12 06:35:03;;;;;;;1.53;0.90;;;6.50;99.90;;;;;;5051306;28;20182;-63
2024/02/12 06:37:28;;;;;;;1.80;1.63;;;6.50;99.90;;;;;;5051125;28;20169;-67
2024/02/12 06:39:54;;;;;;;2.00;1.63;;;6.50;99.90;;;;;;5033085;28;20558;-67
2024/02/12 06:42:20;;;;;;;2.53;1.80;;;6.60;99.90;;;;;;5033289;28;20273;-67
2024/02/12 06:44:45;;;;;;;1.80;1.70;;;6.60;99.90;;;;;;5051224;28;20978;-67
2024/02/12 06:47:11;;;;;;;2.53;1.27;;;6.70;99.90;;;;;;5050920;28;20165;-67
2024/02/12 06:49:37;;;;;;;3.00;1.20;;;6.70;99.90;;;;;;5051120;28;20205;-67
2024/02/12 06:52:02;;;;;;;2.13;1.53;;;6.70;99.90;;;;;;5051130;28;20187;-68
2024/02/12 06:54:29;;;;;;;1.33;0.90;;;6.80;99.90;;;;;;5051235;28;20177;-67
2024/02/12 06:56:54;;;;;;;1.63;1.52;;;6.70;99.90;;;;;;5050728;28;20200;-68
2024/02/12 06:59:20;;;;;;;1.07;1.07;;;6.70;99.90;;;;;;5045485;28;20213;-67
2024/02/12 07:01:45;;;;;;;2.03;1.60;;;6.80;99.90;;;;;;5051047;28;20172;-67
2024/02/12 07:04:11;;;;;;;2.87;1.53;;;6.90;99.90;;;;;;5051058;28;20663;-67
2024/02/12 07:06:37;;;;;;;1.70;1.00;;;6.90;99.90;;;;;;5050752;28;20193;-67
2024/02/12 07:09:02;;;;;;;4.40;1.40;;;6.90;99.90;;;;;;5050952;28;20180;-67
2024/02/12 07:11:28;;;;;;;3.67;2.23;;;7.00;99.90;;;;;;5050808;28;20177;-67
2024/02/12 07:13:54;;;;;;;1.30;1.17;;;7.00;99.90;;;;;;5033139;28;20265;-66
2024/02/12 07:16:20;;;;;;;1.53;1.43;;;7.00;99.90;;;;;;5051250;28;20264;-67
2024/02/12 07:18:46;;;;;;;1.77;1.65;;;7.10;99.90;;;;;;5054708;28;20440;-66
2024/02/12 07:21:13;;;;;;;2.83;2.22;;;7.00;99.90;;;;;;5054592;28;20247;-67
2024/02/12 07:23:39;;;;;;;1.00;0.82;;;7.00;99.90;;;;;;5054657;28;20170;-67
2024/02/12 07:26:06;;;;;;;2.50;2.30;;;7.10;99.90;;;;;;5054375;28;20173;-67
2024/02/12 07:28:32;;;;;;;1.48;1.35;;;7.10;99.90;;;;;;5054347;28;20173;-67
2024/02/12 07:30:57;;;;;;;2.40;1.63;;;6.90;99.90;;;;;;5054487;28;20186;-68
2024/02/12 07:33:23;;;;;;;1.80;1.40;;;6.90;99.90;;;;;;5054487;28;20636;-67
2024/02/12 07:35:49;;;;;;;1.97;1.37;;;6.80;99.90;;;;;;5054841;28;20500;-67
2024/02/12 07:38:15;;;;;;;2.40;1.83;;;6.70;99.90;;;;;;5054770;28;20408;-67
2024/02/12 07:40:40;;;;;;;1.70;1.20;;;6.70;99.90;;;;;;5053979;28;20259;-67
2024/02/12 07:43:06;;;;;;;3.13;1.30;;;6.80;99.90;;;;;;5054347;28;20167;-66
2024/02/12 07:45:36;;;;;;;3.83;1.60;;;7.00;99.90;;;;;;5054330;28;20189;-67
2024/02/12 07:48:02;;;;;;;2.03;1.50;;;7.00;99.90;;;;;;5053976;28;20174;-66
2024/02/12 07:50:27;;;;;;;3.92;2.15;;;6.90;99.90;;;;;;5036181;28;20198;-66
2024/02/12 07:52:53;;;;;;;1.63;1.53;;;6.60;99.90;;;;;;5054120;28;20195;-67
2024/02/12 07:55:22;;;;;;;3.97;1.50;;;6.60;99.90;;;;;;5053974;28;20600;-67
2024/02/12 07:57:50;;;;;;;1.75;1.65;;;6.70;99.90;;;;;;5053769;28;20181;-67
2024/02/12 08:00:18;;;;;;;3.63;2.15;;;6.40;99.90;;;;;;5053767;28;20212;-67
2024/02/12 08:02:47;;;;;;;2.60;1.75;;;6.30;99.90;;;;;;5036112;28;20173;-67
2024/02/12 08:05:14;;;;;;;2.47;2.28;;;6.40;99.90;;;;;;5053857;28;20176;-67
2024/02/12 08:07:40;;;;;;;4.60;3.20;;;6.50;99.90;;;;;;5053525;28;20202;-67
2024/02/12 08:10:10;;;;;;;1.55;1.05;;;6.30;99.90;;;;;;5053722;28;20224;-66
2024/02/12 08:12:36;;;;;;;1.20;0.90;;;6.50;99.90;;;;;;5053737;28;20169;-68
2024/02/12 08:15:03;;;;;;;1.70;1.10;;;6.60;99.90;;;;;;5053688;28;20181;-68
2024/02/12 08:17:30;;;;;;;1.10;1.00;;;6.70;99.90;;;;;;5053270;28;20173;-68
2024/02/12 08:19:55;;;;;;;5.07;1.00;;;6.70;99.90;;;;;;5053413;28;20213;-68
2024/02/12 08:22:24;;;;;;;5.10;1.63;;;6.60;99.90;;;;;;5053557;28;20170;-67
2024/02/12 08:24:51;;;;;;;2.45;1.05;;;6.70;99.90;;;;;;5053412;28;20167;-67
2024/02/12 08:27:18;;;;;;;1.00;0.90;;;6.90;99.90;;;;;;5052950;28;20528;-68
2024/02/12 08:29:44;;;;;;;3.28;1.00;;;7.10;99.90;;;;;;5030188;28;20197;-67
2024/02/12 08:32:11;;;;;;;2.70;1.60;;;7.30;99.90;;;;;;5053350;28;20644;-68
2024/02/12 08:34:43;;;;;;;4.32;1.20;;;7.40;99.90;;;;;;5053263;28;20217;-67
2024/02/12 08:37:08;;;;;;;0.93;0.93;;;7.50;99.90;;;;;;5053152;28;20174;-67
2024/02/12 08:39:34;;;;;;;1.40;1.17;;;7.60;99.90;;;;;;5035042;28;20206;-67
2024/02/12 08:42:00;;;;;;;4.30;1.08;;;7.50;99.90;;;;;;5053237;28;20170;-67
2024/02/12 08:44:26;;;;;;;1.27;1.17;;;7.60;99.90;;;;;;5053163;28;20170;-68
2024/02/12 08:46:52;;;;;;;1.80;1.40;;;7.80;99.90;;;;;;5052864;28;20910;-68
2024/02/12 08:49:18;;;;;;;2.33;1.35;;;7.90;99.90;;;;;;5053378;28;20563;-67
2024/02/12 08:51:45;;;;;;;1.37;1.27;;;8.10;99.90;;;;;;5052474;28;20178;-68
2024/02/12 08:54:11;;;;;;;0.90;0.90;;;8.20;99.90;;;;;;5027688;28;20197;-68
2024/02/12 08:56:41;;;;;;;3.13;1.10;;;8.30;99.90;;;;;;5032612;28;20182;-68
2024/02/12 08:59:07;;;;;;;4.97;1.00;;;8.20;99.90;;;;;;5032450;28;20542;-66
2024/02/12 09:01:36;;;;;;;1.48;1.38;;;8.20;99.50;;;;;;5032703;28;20544;-67
2024/02/12 09:04:01;;;;;;;1.67;1.40;;;8.30;99.90;;;;;;5032706;28;20308;-67
2024/02/12 09:06:27;;;;;;;1.17;0.73;;;8.40;99.90;;;;;;5032484;28;20596;-67
2024/02/12 09:08:53;;;;;;;7.20;0.90;;;8.60;99.80;;;;;;5032651;28;20413;-66
2024/02/12 09:11:19;;;;;;;3.30;1.17;;;8.80;98.80;;;;;;5032671;28;20569;-68
2024/02/12 09:13:48;;;;;;;6.00;1.00;;;8.90;98.80;;;;;;5032726;28;20167;-67
2024/02/12 09:16:14;;;;;;;2.80;0.95;;;8.80;99.00;;;;;;5032502;28;20182;-67
2024/02/12 09:18:40;;;;;;;1.17;0.87;;;8.80;99.10;;;;;;5032202;28;20198;-67
2024/02/12 09:21:06;;;;;;;1.83;1.00;;;8.70;98.90;;;;;;5032545;28;20537;-67
2024/02/12 09:23:32;;;;;;;1.70;1.08;;;8.50;98.60;;;;;;5032509;28;20163;-67
2024/02/12 09:25:58;;;;;;;6.22;1.30;;;8.20;98.60;;;;;;5032423;28;20541;-67
2024/02/12 09:28:26;;;;;;;2.15;0.95;;;8.10;98.70;;;;;;5032025;28;20170;-67
2024/02/12 09:30:54;;;;;;;1.23;1.00;;;8.10;98.70;;;;;;5026690;28;20194;-67
2024/02/12 09:33:19;;;;;;;2.25;0.82;;;7.90;98.80;;;;;;5014618;28;20777;-68
2024/02/12 09:35:46;;;;;;;2.87;0.83;;;7.90;99.60;;;;;;5032066;28;20171;-69
2024/02/12 09:38:12;;;;;;;1.33;1.08;;;8.00;99.90;;;;;;5031927;28;20170;-67
2024/02/12 09:40:42;;;;;;;1.80;1.00;;;8.10;99.60;;;;;;5031196;28;20582;-68
2024/02/12 09:43:09;;;;;;;0.95;0.95;;;8.10;99.10;;;;;;5014341;28;20242;-68
2024/02/12 09:45:42;;;;;;;2.17;1.08;;;8.20;99.60;;;;;;5031944;28;20238;-68
2024/02/12 09:48:10;;;;;;;3.90;2.15;;;8.30;99.60;;;;;;5036530;28;20662;-67
2024/02/12 09:50:37;;;;;;;3.72;0.90;;;8.30;99.10;;;;;;5031255;28;20229;-67
2024/02/12 09:53:05;;;;;;;4.45;1.50;;;8.50;98.90;;;;;;5031806;28;20261;-67
2024/02/12 09:55:31;;;;;;;1.67;1.58;;;8.60;98.90;;;;;;5031883;28;20198;-67
2024/02/12 09:57:59;;;;;;;0.93;0.90;;;8.90;99.20;;;;;;5031500;28;20297;-67
2024/02/12 10:00:25;;;;;;;6.50;1.67;;;9.30;98.90;;;;;;5031545;28;20213;-67
2024/02/12 10:02:55;;;;;;;1.15;0.70;;;9.70;98.40;;;;;;5031831;28;20216;-67
2024/02/12 10:05:21;;;;;;;2.17;1.20;;;10.10;96.70;;;;;;5031767;28;20175;-67
2024/02/12 10:07:47;;;;;;;0.90;0.90;;;10.30;96.40;;;;;;5031442;28;20424;-67
2024/02/12 10:10:14;;;;;;;1.70;0.90;;;10.30;94.70;;;;;;5031592;28;20430;-67
2024/02/12 10:12:41;;;;;;;4.43;0.88;;;10.20;95.20;;;;;;5031529;28;20594;-67
2024/02/12 10:15:07;;;;;;;1.00;0.85;;;9.90;94.10;;;;;;5031601;28;20199;-67
2024/02/12 10:17:33;;;;;;;0.60;0.60;;;9.50;94.80;;;;;;5031224;28;20229;-67
2024/02/12 10:19:59;;;;;;;2.08;1.67;;;9.50;94.80;;;;;;5031392;28;20212;-67
2024/02/12 10:22:25;;;;;;;1.77;0.82;;;9.30;95.10;;;;;;5032987;28;20201;-67
2024/02/12 10:24:51;;;;;;;1.17;1.07;;;9.10;95.60;;;;;;5031428;28;20644;-67
2024/02/12 10:27:22;;;;;;;1.63;0.93;;;9.20;96.80;;;;;;5031172;28;20402;-67
2024/02/12 10:30:01;;;;;;;1.35;1.25;;;9.00;95.70;;;;;;5031425;28;20425;-67
2024/02/12 10:32:28;;;;;;;5.97;1.20;;;8.90;96.50;;;;;;5031377;28;20171;-67
2024/02/12 10:34:57;;;;;;;4.43;1.10;;;8.90;96.80;;;;;;5031698;28;20628;-67
2024/02/12 10:37:26;;;;;;;3.08;1.15;;;9.10;97.00;;;;;;5031011;28;20611;-67
2024/02/12 10:39:53;;;;;;;3.53;1.35;;;9.60;96.80;;;;;;5030729;28;20206;-67
2024/02/12 10:42:36;;;;;;;3.95;2.03;;;10.00;95.80;;;;;;5013348;28;20175;-67
2024/02/12 10:45:06;;;;;;;4.40;1.43;;;10.70;94.60;;;;;;5031337;28;20593;-63
2024/02/12 10:47:35;;;;;;;2.20;1.03;;;11.10;93.50;;;;;;5031033;28;21002;-63
2024/02/12 10:50:01;;;;;;;0.97;0.80;;;11.20;92.20;;;;;;5031180;28;20819;-63
2024/02/12 10:52:29;;;;;;;1.80;0.90;;;11.30;92.10;;;;;;5035251;28;20505;-63
2024/02/12 10:54:55;;;;;;;0.90;0.80;;;11.20;91.80;;;;;;5035163;28;20460;-64
2024/02/12 10:57:22;;;;;;;2.77;1.13;;;11.20;92.00;;;;;;5034917;28;20785;-63
2024/02/12 11:00:05;;;;;;;2.37;1.43;;;11.10;92.70;;;;;;5035070;28;20472;-63
2024/02/12 11:02:43;;;;;;;0.77;0.67;;;10.90;92.40;;;;;;5035094;28;20401;-63
2024/02/12 11:05:12;;;;;;;4.00;0.88;;;10.90;91.80;;;;;;5034852;28;20929;-63
2024/02/12 11:07:38;;;;;;;2.87;0.60;;;10.90;92.20;;;;;;5034434;28;20232;-63
2024/02/12 11:10:08;;;;;;;0.90;0.90;;;10.80;92.20;;;;;;5034595;28;20430;-62
2024/02/12 11:12:40;;;;;;;0.70;0.60;;;10.50;91.20;;;;;;5035038;28;20414;-63
2024/02/12 11:15:13;;;;;;;1.08;1.00;;;10.40;92.00;;;;;;5040193;28;20894;-62
2024/02/12 11:17:42;;;;;;;1.03;0.97;;;10.10;91.70;;;;;;5045379;28;20182;-63
2024/02/12 11:20:21;;;;;;;1.10;1.00;;;10.20;92.70;;;;;;5054542;28;20502;-63
2024/02/12 11:22:48;;;;;;;1.10;1.10;;;10.30;92.90;;;;;;5046136;28;20417;-63
2024/02/12 11:25:19;;;;;;;2.50;0.90;;;10.60;93.00;;;;;;5045407;28;20859;-63
2024/02/12 11:27:53;;;;;;;1.53;1.13;;;10.80;92.00;;;;;;5044043;28;20408;-62
2024/02/12 11:30:19;;;;;;;1.10;0.70;;;10.50;92.10;;;;;;5043402;28;20437;-63
2024/02/12 11:32:46;;;;;;;1.23;0.83;;;10.60;93.00;;;;;;5044082;28;20956;-63
2024/02/12 11:35:13;;;;;;;2.43;1.00;;;10.60;91.60;;;;;;5047898;28;20492;-63
2024/02/12 11:37:41;;;;;;;2.00;1.80;;;10.60;91.50;;;;;;5054196;28;20427;-63
2024/02/12 11:40:12;;;;;;;1.10;1.10;;;10.80;91.90;;;;;;5054040;28;20470;-63
2024/02/12 11:42:50;;;;;;;0.57;0.50;;;11.00;91.60;;;;;;5054245;28;20456;-63
2024/02/12 11:45:25;;;;;;;1.00;0.60;;;11.10;91.00;;;;;;5037247;28;20396;-63
2024/02/12 11:47:53;;;;;;;1.27;1.00;;;11.10;90.90;;;;;;5032947;28;20403;-63
2024/02/12 11:50:24;;;;;;;0.70;0.70;;;11.10;91.20;;;;;;5043779;28;20429;-63
2024/02/12 11:52:51;;;;;;;0.97;0.77;;;11.10;90.10;;;;;;5045811;28;20421;-62
2024/02/12 11:55:18;;;;;;;1.10;1.00;;;10.90;90.70;;;;;;5045434;28;20445;-63
2024/02/12 11:57:44;;;;;;;1.33;1.00;;;10.70;90.90;;;;;;5044550;28;20413;-63
2024/02/12 12:00:17;;;;;;;1.70;0.90;;;10.60;91.00;;;;;;5044073;28;21047;-63
2024/02/12 12:02:46;;;;;;;1.07;0.87;;;10.80;91.60;;;;;;5041514;28;20405;-64
2024/02/12 12:05:18;;;;;;;0.77;0.73;;;10.90;91.10;;;;;;5025229;28;20943;-63
2024/02/12 12:07:46;;;;;;;2.80;0.77;;;11.00;90.10;;;;;;5042844;28;20405;-63
2024/02/12 12:10:12;;;;;;;0.70;0.50;;;10.90;89.20;;;;;;5042720;28;20465;-63
2024/02/12 12:12:41;;;;;;;5.73;1.13;;;10.70;89.10;;;;;;5053807;28;20949;-63
2024/02/12 12:15:09;;;;;;;5.43;1.30;;;10.40;90.00;;;;;;5053700;28;20423;-63
2024/02/12 12:17:37;;;;;;;1.30;0.80;;;10.40;90.30;;;;;;5034525;28;20412;-63
2024/02/12 12:20:05;;;;;;;1.03;1.03;;;10.00;90.10;;;;;;5035329;28;20475;-64
2024/02/12 12:22:31;;;;;;;6.93;1.00;;;9.90;91.90;;;;;;5044335;28;20767;-63
2024/02/12 12:24:59;;;;;;;1.55;0.82;;;9.60;91.80;;;;;;5050981;28;20174;-63
2024/02/12 12:27:26;;;;;;;1.98;0.88;;;9.50;92.20;;;;;;5053172;28;20171;-63
2024/02/12 12:29:52;;;;;;;0.90;0.90;;;9.70;92.00;;;;;;5052660;28;20198;-63
2024/02/12 12:32:18;;;;;;;2.20;1.10;;;10.00;91.50;;;;;;5053162;28;20916;-63
2024/02/12 12:34:44;;;;;;;1.40;0.97;;;10.30;91.10;;;;;;5053266;28;20416;-63
2024/02/12 12:37:14;;;;;;;1.20;1.17;;;10.20;91.00;;;;;;5053243;28;20416;-64
2024/02/12 12:39:41;;;;;;;1.10;1.00;;;10.00;91.70;;;;;;5053011;28;20214;-63
2024/02/12 12:42:10;;;;;;;2.72;0.90;;;9.60;92.50;;;;;;5052904;28;20404;-65
2024/02/12 12:44:37;;;;;;;1.25;1.00;;;9.30;92.80;;;;;;5052780;28;20179;-64
2024/02/12 12:47:06;;;;;;;0.88;0.88;;;9.00;93.30;;;;;;5052702;28;20173;-62
2024/02/12 12:49:32;;;;;;;4.00;0.82;;;8.70;93.90;;;;;;5052951;28;20194;-64
2024/02/12 12:52:02;;;;;;;1.20;1.05;;;8.60;94.40;;;;;;5052918;28;20166;-63
2024/02/12 12:54:27;;;;;;;4.53;1.50;;;8.50;94.50;;;;;;5053000;28;20177;-63
2024/02/12 12:56:53;;;;;;;0.80;0.80;;;8.50;94.60;;;;;;5053332;28;20537;-63
2024/02/12 12:59:19;;;;;;;5.63;1.10;;;8.50;95.00;;;;;;5052651;28;20198;-63
2024/02/12 13:01:44;;;;;;;1.10;0.90;;;8.40;95.50;;;;;;5053005;28;20647;-63
2024/02/12 13:04:11;;;;;;;3.07;1.20;;;8.40;95.60;;;;;;5052853;28;20174;-63
2024/02/12 13:06:42;;;;;;;2.88;1.48;;;8.40;95.70;;;;;;5052511;28;20513;-63
2024/02/12 13:09:09;;;;;;;1.30;1.20;;;8.30;96.00;;;;;;5052803;28;20174;-63
2024/02/12 13:11:35;;;;;;;0.82;0.80;;;8.30;95.90;;;;;;5052631;28;20538;-62